Time;durP1;ratioP1;P1;durP2;ratioP2;P2;SDS_P1;SDS_P2;PMS_P1;PMS_P2;Temp;Humidity;BMP_temperature;BMP_pressure;BME280_temperature;BME280_humidity;BME280_pressure;Samples;Min_cycle;Max_cycle;Signal;HPM_P1;HPM_P2
2022/02/07 00:01:56;;;;;;;;;;;;;;;14.76;47.12;98695.94;4923586;28;98062;-56
2022/02/07 00:04:27;;;;;;;;;;;;;;;14.75;47.34;98689.75;4924558;28;97735;-56
2022/02/07 00:06:53;;;;;;;;;;;;;;;14.75;47.50;98697.88;4938986;28;98585;-55
2022/02/07 00:09:19;;;;;;;;;;;;;;;14.73;47.02;98687.34;4941280;28;103221;-64
2022/02/07 00:11:45;;;;;;;;;;;;;;;14.75;47.33;98686.25;4942579;28;98041;-63
2022/02/07 00:14:12;;;;;;;;;;;;;;;14.73;47.34;98686.56;4942285;28;116822;-56
2022/02/07 00:16:37;;;;;;;;;;;;;;;14.72;47.36;98683.06;4943006;28;98998;-64
2022/02/07 00:19:05;;;;;;;;;;;;;;;14.71;47.44;98686.91;4935174;28;100733;-56
2022/02/07 00:21:32;;;;;;;;;;;;;;;14.72;47.35;98717.53;4922771;28;98453;-64
2022/02/07 00:23:58;;;;;;;;;;;;;;;14.71;47.29;98727.59;4923293;28;98261;-64
2022/02/07 00:26:24;;;;;;;;;;;;;;;14.70;47.13;98725.22;4922002;28;126879;-56
2022/02/07 00:28:51;;;;;;;;;;;;;;;14.69;47.30;98737.19;4921787;28;129366;-64
2022/02/07 00:31:17;;;;;;;;;;;;;;;14.69;47.32;98737.19;4923328;28;97956;-56
2022/02/07 00:33:43;;;;;;;;;;;;;;;14.67;46.99;98742.94;4925136;28;115877;-56
2022/02/07 00:36:13;;;;;;;;;;;;;;;14.66;47.38;98756.84;4941146;28;128058;-56
2022/02/07 00:38:41;;;;;;;;;;;;;;;14.65;46.81;98761.47;4939775;28;98230;-64
2022/02/07 00:41:16;;;;;;;;;;;;;;;14.64;47.31;98765.31;4941781;28;98613;-56
2022/02/07 00:43:44;;;;;;;;;;;;;;;14.64;47.27;98778.06;4941460;28;98043;-63
2022/02/07 00:46:12;;;;;;;;;;;;;;;14.63;47.23;98779.22;4922841;28;98248;-63
2022/02/07 00:48:39;;;;;;;;;;;;;;;14.63;47.05;98776.50;4922562;28;99528;-56
2022/02/07 00:51:05;;;;;;;;;;;;;;;14.61;47.00;98765.19;4922615;28;98400;-56
2022/02/07 00:53:31;;;;;;;;;;;;;;;14.61;47.04;98768.69;4922437;28;110271;-63
2022/02/07 00:55:57;;;;;;;;;;;;;;;14.61;46.98;98762.47;4903290;28;98070;-63
2022/02/07 00:58:23;;;;;;;;;;;;;;;14.59;46.88;98762.81;4930839;28;98380;-63
2022/02/07 01:00:49;;;;;;;;;;;;;;;14.59;46.64;98765.53;4941480;28;99459;-56
2022/02/07 01:03:15;;;;;;;;;;;;;;;14.59;46.55;98779.09;4928613;28;97753;-63
2022/02/07 01:05:41;;;;;;;;;;;;;;;14.58;46.67;98780.22;4922984;28;98744;-63
2022/02/07 01:08:08;;;;;;;;;;;;;;;14.57;46.56;98778.59;4922330;28;98389;-56
2022/02/07 01:10:58;;;;;;;;;;;;;;;14.58;46.46;98784.81;4922161;28;98501;-64
2022/02/07 01:14:17;;;;;;;;;;;;;;;14.57;46.79;98780.53;4922842;28;97954;-57
2022/02/07 01:19:28;;;;;;;;;;;;;;;14.57;46.40;98805.72;4921684;28;98496;-57
2022/02/07 01:52:14;;;;;;;;;;;;;;;14.46;46.54;98847.88;4940281;28;98010;-57
2022/02/07 01:54:59;;;;;;;;;;;;;;;14.46;46.17;98845.19;4933075;28;98373;-63
2022/02/07 01:57:25;;;;;;;;;;;;;;;14.45;46.50;98859.88;4947668;28;97953;-56
2022/02/07 01:59:51;;;;;;;;;;;;;;;14.44;46.05;98855.56;4952341;28;98627;-56
2022/02/07 02:02:17;;;;;;;;;;;;;;;14.45;46.05;98862.56;4921089;28;128061;-56
2022/02/07 02:04:43;;;;;;;;;;;;;;;14.45;46.03;98852.53;4920500;28;124549;-56
2022/02/07 02:07:09;;;;;;;;;;;;;;;14.45;46.29;98868.78;4936064;28;99791;-63
2022/02/07 02:09:35;;;;;;;;;;;;;;;14.45;45.94;98873.41;4951510;28;126405;-56
2022/02/07 02:12:03;;;;;;;;;;;;;;;14.45;46.33;98878.84;4935861;28;98392;-56
2022/02/07 02:20:26;;;;;;;;;;;;;;;14.44;46.36;98891.59;4890366;28;98160;-56
2022/02/07 02:35:58;;;;;;;;;;;;;;;14.34;45.59;98943.47;4940769;28;97832;-56
2022/02/07 02:38:43;;;;;;;;;;;;;;;14.33;45.61;98963.59;4942641;28;97657;-63
2022/02/07 02:46:38;;;;;;;;;;;;;;;14.27;45.67;99002.06;4924262;28;97893;-63
2022/02/07 02:49:04;;;;;;;;;;;;;;;14.25;45.67;99024.84;4930730;28;97734;-56
2022/02/07 02:51:30;;;;;;;;;;;;;;;14.23;46.09;99021.69;4941600;28;108470;-56
2022/02/07 02:53:56;;;;;;;;;;;;;;;14.22;45.65;99027.41;4943481;28;99014;-63
2022/02/07 02:56:22;;;;;;;;;;;;;;;14.19;45.84;99042.41;4943399;28;126987;-58
2022/02/07 02:58:48;;;;;;;;;;;;;;;14.18;45.70;99054.34;4943673;28;104928;-56
2022/02/07 03:01:14;;;;;;;;;;;;;;;14.17;45.71;99049.28;4942904;28;119481;-63
2022/02/07 03:03:40;;;;;;;;;;;;;;;14.16;46.01;99062.03;4958357;28;98040;-64
2022/02/07 03:06:06;;;;;;;;;;;;;;;14.15;45.87;99067.78;4943913;28;98497;-56
2022/02/07 03:08:32;;;;;;;;;;;;;;;14.13;45.51;99076.22;4940358;28;116246;-64
2022/02/07 03:11:03;;;;;;;;;;;;;;;14.11;45.72;99088.50;4941122;28;127410;-56
2022/02/07 03:18:40;;;;;;;;;;;;;;;14.06;45.49;99121.97;4922182;28;98006;-55
2022/02/07 03:21:06;;;;;;;;;;;;;;;14.03;45.79;99116.41;4922511;28;128265;-63
2022/02/07 03:23:32;;;;;;;;;;;;;;;14.04;45.81;99134.28;4922447;28;127865;-56
2022/02/07 03:25:58;;;;;;;;;;;;;;;14.03;45.77;99144.31;4935559;28;126509;-63
2022/02/07 03:28:26;;;;;;;;;;;;;;;14.04;45.54;99150.53;4974262;28;98046;-56
2022/02/07 03:30:52;;;;;;;;;;;;;;;14.03;45.58;99167.88;4942771;28;98604;-56
2022/02/07 03:33:18;;;;;;;;;;;;;;;14.03;45.56;99174.13;4925082;28;128235;-55
2022/02/07 03:35:44;;;;;;;;;;;;;;;14.03;45.58;99190.38;4971631;28;97878;-56
2022/02/07 03:38:10;;;;;;;;;;;;;;;14.03;45.70;99184.13;4943029;28;98223;-63
2022/02/07 03:40:36;;;;;;;;;;;;;;;14.04;45.73;99202.00;4939305;28;98507;-63
2022/02/07 03:43:02;;;;;;;;;;;;;;;14.04;45.64;99207.44;4943720;28;98916;-56
2022/02/07 03:45:28;;;;;;;;;;;;;;;14.04;45.73;99215.56;4942234;28;117172;-56
2022/02/07 03:47:54;;;;;;;;;;;;;;;14.03;45.59;99220.19;4935103;28;101608;-63
2022/02/07 03:50:20;;;;;;;;;;;;;;;14.02;45.37;99226.69;4922361;28;127459;-56
2022/02/07 03:52:46;;;;;;;;;;;;;;;14.02;45.22;99229.41;4922701;28;99215;-56
2022/02/07 03:55:12;;;;;;;;;;;;;;;14.03;45.38;99241.03;4923778;28;98271;-56
2022/02/07 03:57:37;;;;;;;;;;;;;;;14.03;45.37;99246.44;4922783;28;110209;-56
2022/02/07 04:00:05;;;;;;;;;;;;;;;14.00;45.28;99251.41;4924022;28;128820;-56
2022/02/07 04:02:38;;;;;;;;;;;;;;;14.01;45.19;99263.03;4942960;28;98398;-57
2022/02/07 04:05:33;;;;;;;;;;;;;;;13.99;45.31;99260.66;4939726;28;98056;-57
2022/02/07 04:07:50;;;;;;;;;;;;;;;14.00;45.14;99272.28;4942378;28;98231;-63
2022/02/07 04:10:17;;;;;;;;;;;;;;;13.98;44.98;99277.22;4941713;28;99065;-64
2022/02/07 04:12:49;;;;;;;;;;;;;;;13.98;45.44;99285.34;4942839;28;99281;-57
2022/02/07 04:15:18;;;;;;;;;;;;;;;13.96;45.18;99288.38;4942652;28;97994;-56
2022/02/07 04:17:50;;;;;;;;;;;;;;;13.96;45.01;99293.00;4943157;28;97902;-64
2022/02/07 04:20:17;;;;;;;;;;;;;;;13.97;45.04;99303.50;4940833;28;98335;-55
2022/02/07 04:22:43;;;;;;;;;;;;;;;13.95;45.40;99303.03;4942214;28;98212;-63
2022/02/07 04:25:09;;;;;;;;;;;;;;;13.98;45.22;99323.28;4941638;28;119530;-56
2022/02/07 04:27:35;;;;;;;;;;;;;;;13.97;45.11;99314.34;4940136;28;118482;-64
2022/02/07 04:30:04;;;;;;;;;;;;;;;13.97;45.28;99330.59;4970807;28;103848;-56
2022/02/07 04:32:30;;;;;;;;;;;;;;;13.96;45.25;99333.63;4921931;28;114260;-56
2022/02/07 04:34:56;;;;;;;;;;;;;;;13.96;45.23;99347.97;4921465;28;128198;-64
2022/02/07 04:37:22;;;;;;;;;;;;;;;13.96;44.85;99369.66;4922265;28;117732;-56
2022/02/07 04:39:50;;;;;;;;;;;;;;;13.96;44.93;99363.44;4921616;28;127308;-56
2022/02/07 04:42:18;;;;;;;;;;;;;;;13.96;45.06;99379.69;4938843;28;99063;-63
2022/02/07 04:44:57;;;;;;;;;;;;;;;13.98;44.94;99388.28;4969886;28;97931;-64
2022/02/07 04:55:35;;;;;;;;;;;;;;;13.95;44.96;99408.69;4938754;28;97917;-56
2022/02/07 04:58:12;;;;;;;;;;;;;;;13.94;44.73;99412.50;4942624;28;97884;-56
2022/02/07 05:00:46;;;;;;;;;;;;;;;13.94;44.75;99412.50;4941785;28;98366;-63
2022/02/07 05:03:19;;;;;;;;;;;;;;;13.95;44.75;99424.94;4941436;28;98212;-57
2022/02/07 05:16:17;;;;;;;;;;;;;;;13.95;44.89;99449.34;4920854;28;97891;-63
2022/02/07 05:18:44;;;;;;;;;;;;;;;13.95;44.86;99446.63;4922825;28;98059;-65
2022/02/07 05:21:11;;;;;;;;;;;;;;;13.95;45.04;99452.03;4922574;28;98170;-63
2022/02/07 05:23:37;;;;;;;;;;;;;;;13.95;44.71;99468.28;4921237;28;113503;-63
2022/02/07 05:26:03;;;;;;;;;;;;;;;13.96;44.75;99475.31;4922274;28;97926;-63
2022/02/07 05:28:28;;;;;;;;;;;;;;;13.98;45.13;99472.28;4921101;28;110889;-56
2022/02/07 05:30:54;;;;;;;;;;;;;;;13.96;45.03;99483.44;4940003;28;128185;-56
2022/02/07 05:33:20;;;;;;;;;;;;;;;13.97;44.79;99493.16;4939208;28;98318;-56
2022/02/07 05:35:46;;;;;;;;;;;;;;;13.96;45.11;99499.69;4939496;28;126190;-56
2022/02/07 05:38:12;;;;;;;;;;;;;;;13.96;44.89;99491.56;4930381;28;116176;-57
2022/02/07 05:40:55;;;;;;;;;;;;;;;13.96;44.78;99505.09;4907547;28;99031;-56
2022/02/07 05:43:21;;;;;;;;;;;;;;;13.96;45.30;99528.69;4900486;28;98368;-56
2022/02/07 05:45:47;;;;;;;;;;;;;;;13.95;45.02;99530.59;4918886;28;127192;-56
2022/02/07 05:48:13;;;;;;;;;;;;;;;13.95;45.08;99541.44;4932125;28;113659;-56
2022/02/07 05:50:38;;;;;;;;;;;;;;;13.95;45.21;99546.03;4938311;28;98989;-56
2022/02/07 05:53:04;;;;;;;;;;;;;;;13.95;44.87;99557.69;4935902;28;128162;-56
2022/02/07 05:55:30;;;;;;;;;;;;;;;13.94;45.10;99564.22;4935341;28;127619;-56
2022/02/07 05:57:56;;;;;;;;;;;;;;;13.93;44.84;99565.31;4937768;28;98005;-56
2022/02/07 06:00:22;;;;;;;;;;;;;;;13.95;45.04;99583.97;4931981;28;127511;-56
2022/02/07 06:02:48;;;;;;;;;;;;;;;13.93;45.12;99578.88;4933748;28;126317;-56
2022/02/07 06:05:14;;;;;;;;;;;;;;;13.94;45.37;99587.78;4939411;28;127057;-56
2022/02/07 06:07:40;;;;;;;;;;;;;;;13.93;45.36;99605.97;4938297;28;99362;-56
2022/02/07 06:10:06;;;;;;;;;;;;;;;13.92;45.00;99609.78;4921704;28;121189;-55
2022/02/07 06:12:36;;;;;;;;;;;;;;;13.92;45.10;99617.13;4933519;28;99136;-56
2022/02/07 06:15:03;;;;;;;;;;;;;;;13.91;45.05;99629.88;4939638;28;98311;-55
2022/02/07 06:17:29;;;;;;;;;;;;;;;13.90;45.19;99628.25;4943609;28;97897;-56
2022/02/07 06:19:55;;;;;;;;;;;;;;;13.89;45.08;99645.63;4930785;28;99078;-56
2022/02/07 06:22:21;;;;;;;;;;;;;;;13.89;45.38;99632.06;4933865;28;98694;-56
2022/02/07 06:24:47;;;;;;;;;;;;;;;13.89;45.38;99651.03;4943461;28;98633;-55
2022/02/07 06:27:13;;;;;;;;;;;;;;;13.89;45.55;99661.06;4943701;28;115001;-56
2022/02/07 06:29:39;;;;;;;;;;;;;;;13.88;45.44;99660.28;4931915;28;128933;-56
2022/02/07 06:32:06;;;;;;;;;;;;;;;13.88;45.40;99678.44;4923347;28;98558;-56
2022/02/07 06:34:32;;;;;;;;;;;;;;;13.88;45.62;99675.72;4921736;28;98395;-56
2022/02/07 06:36:58;;;;;;;;;;;;;;;13.87;45.39;99679.53;4924639;28;97915;-55
2022/02/07 06:39:24;;;;;;;;;;;;;;;13.87;45.29;99690.38;4921611;28;126324;-56
2022/02/07 06:41:51;;;;;;;;;;;;;;;13.86;45.32;99695.00;4923316;28;99275;-56
2022/02/07 06:44:17;;;;;;;;;;;;;;;13.87;45.43;99701.19;4923415;28;98197;-56
2022/02/07 06:46:43;;;;;;;;;;;;;;;13.87;45.47;99707.44;4923053;28;117312;-56
2022/02/07 06:49:10;;;;;;;;;;;;;;;13.89;45.55;99715.25;4923375;28;128005;-56
2022/02/07 06:51:36;;;;;;;;;;;;;;;13.87;45.44;99723.69;4923879;28;98885;-56
2022/02/07 06:54:02;;;;;;;;;;;;;;;13.90;45.35;99735.81;4923382;28;109378;-56
2022/02/07 06:56:28;;;;;;;;;;;;;;;13.89;45.55;99743.13;4924474;28;107047;-55
2022/02/07 06:58:54;;;;;;;;;;;;;;;13.90;45.53;99750.16;4924614;28;98425;-64
2022/02/07 07:01:20;;;;;;;;;;;;;;;13.92;45.88;99747.94;4956371;28;98340;-64
2022/02/07 07:03:46;;;;;;;;;;;;;;;13.94;45.55;99759.25;4956260;28;98366;-63
2022/02/07 07:06:13;;;;;;;;;;;;;;;13.96;45.46;99758.97;4937865;28;98291;-63
2022/02/07 07:08:44;;;;;;;;;;;;;;;13.97;45.36;99755.94;4943140;28;99055;-56
2022/02/07 07:11:13;;;;;;;;;;;;;;;14.00;45.42;99776.22;4943136;28;98362;-64
2022/02/07 07:13:48;;;;;;;;;;;;;;;14.04;45.43;99784.53;4904373;28;97853;-63
2022/02/07 07:18:49;;;;;;;;;;;;;;;14.03;45.38;99802.72;4930244;28;98307;-63
2022/02/07 07:21:15;;;;;;;;;;;;;;;14.04;45.36;99793.47;4943052;28;110885;-63
2022/02/07 07:23:42;;;;;;;;;;;;;;;14.09;45.38;99809.59;4941903;28;118136;-63
2022/02/07 07:26:08;;;;;;;;;;;;;;;14.12;45.60;99806.28;4944223;28;98396;-63
2022/02/07 07:28:35;;;;;;;;;;;;;;;14.15;45.32;99816.53;4943147;28;98787;-63
2022/02/07 07:31:02;;;;;;;;;;;;;;;14.17;45.40;99818.91;4942584;28;98878;-56
2022/02/07 07:33:30;;;;;;;;;;;;;;;14.19;45.75;99819.44;4942381;28;98682;-56
2022/02/07 07:35:59;;;;;;;;;;;;;;;14.22;45.32;99825.00;4942710;28;97829;-56
2022/02/07 07:38:25;;;;;;;;;;;;;;;14.25;45.74;99837.94;4942860;28;98408;-63
2022/02/07 07:40:51;;;;;;;;;;;;;;;14.34;45.49;99838.00;4940880;28;98914;-56
2022/02/07 07:43:17;;;;;;;;;;;;;;;14.40;45.16;99844.94;4942446;28;98775;-64
2022/02/07 07:45:49;;;;;;;;;;;;;;;14.45;45.20;99852.13;4939723;28;97965;-57
2022/02/07 07:48:21;;;;;;;;;;;;;;;14.50;45.25;99854.75;4922992;28;98462;-56
2022/02/07 07:50:57;;;;;;;;;;;;;;;14.54;45.53;99861.19;4923615;28;98406;-63
2022/02/07 07:53:59;;;;;;;;;;;;;;;14.57;45.39;99865.97;4922942;28;98166;-57
2022/02/07 08:01:44;;;;;;;;;;;;;;;14.63;45.23;99899.22;4921872;28;97854;-63
2022/02/07 08:04:13;;;;;;;;;;;;;;;14.76;45.23;99897.56;4924618;28;98103;-56
2022/02/07 08:06:50;;;;;;;;;;;;;;;14.71;45.67;99903.91;4924126;28;97912;-56
2022/02/07 08:12:03;;;;;;;;;;;;;;;14.64;45.48;99925.22;4922830;28;97871;-63
2022/02/07 08:14:30;;;;;;;;;;;;;;;14.61;45.73;99929.34;4935820;28;97966;-63
2022/02/07 08:16:56;;;;;;;;;;;;;;;14.62;45.62;99930.13;4923412;28;97868;-64
2022/02/07 08:19:24;;;;;;;;;;;;;;;14.61;45.75;99933.97;4941060;28;127928;-56
2022/02/07 08:21:50;;;;;;;;;;;;;;;14.58;45.82;99934.56;4941735;28;98970;-56
2022/02/07 08:24:16;;;;;;;;;;;;;;;14.56;46.18;99936.81;4939674;28;98205;-56
2022/02/07 08:26:42;;;;;;;;;;;;;;;14.57;45.96;99941.13;4938086;28;98605;-56
2022/02/07 08:29:08;;;;;;;;;;;;;;;14.57;45.87;99935.69;4936180;28;98554;-63
2022/02/07 08:31:34;;;;;;;;;;;;;;;14.60;45.93;99943.22;4968534;28;98434;-56
2022/02/07 08:34:00;;;;;;;;;;;;;;;14.60;46.25;99956.78;4942378;28;97940;-64
2022/02/07 08:36:26;;;;;;;;;;;;;;;14.62;46.07;99946.41;4941061;28;118246;-56
2022/02/07 08:38:52;;;;;;;;;;;;;;;14.63;46.08;99962.41;4941956;28;98138;-63
2022/02/07 08:41:18;;;;;;;;;;;;;;;14.66;45.89;99964.50;4933088;28;126629;-63
2022/02/07 08:43:44;;;;;;;;;;;;;;;14.65;46.08;99986.50;4922107;28;116494;-63
2022/02/07 08:46:10;;;;;;;;;;;;;;;14.66;46.17;99977.28;4936939;28;117633;-63
2022/02/07 08:48:36;;;;;;;;;;;;;;;14.70;45.97;99991.81;4922120;28;120527;-56
2022/02/07 08:51:02;;;;;;;;;;;;;;;14.72;45.86;99993.09;4922210;28;99267;-56
2022/02/07 08:53:34;;;;;;;;;;;;;;;14.75;46.11;99990.91;4922755;28;98824;-56
2022/02/07 08:56:02;;;;;;;;;;;;;;;14.82;45.92;100007.56;4923168;28;98047;-63
2022/02/07 08:58:30;;;;;;;;;;;;;;;14.89;46.05;100007.91;4938055;28;100052;-63
2022/02/07 09:01:06;;;;;;;;;;;;;;;15.04;45.48;100012.19;4922213;28;98970;-63
2022/02/07 09:11:04;;;;;;;;;;;;;;;15.27;45.42;100018.44;4933737;28;98183;-63
2022/02/07 09:13:32;;;;;;;;;;;;;;;15.43;45.55;100022.38;4920927;28;119652;-57
2022/02/07 09:16:18;;;;;;;;;;;;;;;15.50;45.43;100033.59;4929801;28;98486;-58
2022/02/07 09:18:44;;;;;;;;;;;;;;;15.75;45.17;100034.88;4941894;28;98334;-64
2022/02/07 09:21:11;;;;;;;;;;;;;;;15.82;45.09;100043.38;4941555;28;99155;-57
2022/02/07 09:23:38;;;;;;;;;;;;;;;15.75;45.39;100051.19;4940960;28;98537;-64
2022/02/07 09:26:04;;;;;;;;;;;;;;;15.68;45.45;100059.00;4941529;28;97860;-56
2022/02/07 09:28:30;;;;;;;;;;;;;;;15.67;45.74;100060.09;4939389;28;121623;-63
2022/02/07 09:30:56;;;;;;;;;;;;;;;15.75;45.32;100061.25;4940996;28;108988;-63
2022/02/07 09:33:22;;;;;;;;;;;;;;;15.75;45.71;100062.06;4940119;28;98222;-63
2022/02/07 09:35:49;;;;;;;;;;;;;;;15.76;45.63;100071.81;4942215;28;98079;-64
2022/02/07 09:38:16;;;;;;;;;;;;;;;15.83;45.49;100074.06;4932233;28;99975;-64
2022/02/07 09:40:48;;;;;;;;;;;;;;;15.87;45.76;100058.75;4935253;28;98646;-56
2022/02/07 09:43:14;;;;;;;;;;;;;;;15.91;45.47;100067.88;4921531;28;98164;-56
2022/02/07 09:45:41;;;;;;;;;;;;;;;15.95;45.61;100077.03;4920837;28;116599;-56
2022/02/07 09:48:11;;;;;;;;;;;;;;;15.91;45.71;100076.84;4918911;28;98208;-56
2022/02/07 09:50:37;;;;;;;;;;;;;;;15.94;45.78;100078.13;4921366;28;98383;-56
2022/02/07 09:53:03;;;;;;;;;;;;;;;15.92;45.63;100088.53;4927906;28;98561;-55
2022/02/07 09:55:29;;;;;;;;;;;;;;;15.88;45.48;100091.06;4939537;28;117368;-56
2022/02/07 09:57:55;;;;;;;;;;;;;;;15.85;45.86;100107.19;4940091;28;98552;-56
2022/02/07 10:00:26;;;;;;;;;;;;;;;15.80;46.01;100110.03;4938273;28;98413;-56
2022/02/07 10:03:20;;;;;;;;;;;;;;;15.75;45.67;100119.09;4939572;28;97947;-56
2022/02/07 10:05:56;;;;;;;;;;;;;;;15.72;45.80;100122.47;4940866;28;97894;-56
2022/02/07 10:16:33;;;;;;;;;;;;;;;15.88;45.38;100144.63;4919574;28;97664;-56
2022/02/07 10:34:33;;;;;;;;;;;;;;;16.17;45.40;100152.31;4931914;28;97786;-56
2022/02/07 10:41:40;;;;;;;;;;;;;;;17.32;44.14;100183.09;4918639;28;98270;-56
2022/02/07 10:44:35;;;;;;;;;;;;;;;17.46;44.11;100197.38;4950700;28;100870;-56
2022/02/07 10:47:10;;;;;;;;;;;;;;;17.48;44.32;100197.06;4920448;28;98887;-56
2022/02/07 10:49:36;;;;;;;;;;;;;;;17.68;44.23;100201.88;4894155;28;98005;-56
2022/02/07 10:52:02;;;;;;;;;;;;;;;17.71;44.31;100203.16;4921312;28;98551;-56
2022/02/07 10:54:28;;;;;;;;;;;;;;;17.77;44.42;100218.28;4923080;28;97911;-56
2022/02/07 10:56:55;;;;;;;;;;;;;;;17.87;44.44;100226.09;4921100;28;98032;-57
2022/02/07 10:59:22;;;;;;;;;;;;;;;17.82;44.58;100221.63;4941841;28;97998;-56
2022/02/07 11:04:28;;;;;;;;;;;;;;;17.63;44.83;100232.81;4927453;28;98608;-56
2022/02/07 11:06:59;;;;;;;;;;;;;;;17.74;44.59;100230.56;4948548;28;98236;-56
2022/02/07 11:09:34;;;;;;;;;;;;;;;17.82;44.58;100246.16;4980655;28;97877;-56
2022/02/07 11:20:27;;;;;;;;;;;;;;;17.81;44.82;100263.66;4956825;28;103614;-56
2022/02/07 11:23:19;;;;;;;;;;;;;;;17.67;44.97;100271.13;4966863;28;98975;-56
2022/02/07 11:25:52;;;;;;;;;;;;;;;17.66;44.96;100272.25;4943513;28;98405;-57
2022/02/07 11:28:21;;;;;;;;;;;;;;;17.65;44.90;100276.91;4941111;28;97971;-64
2022/02/07 11:30:50;;;;;;;;;;;;;;;17.58;45.36;100284.75;4943063;28;98016;-58
2022/02/07 11:33:39;;;;;;;;;;;;;;;17.53;45.15;100297.75;4931374;28;98855;-63
2022/02/07 11:36:10;;;;;;;;;;;;;;;17.45;45.25;100290.31;4923425;28;99065;-63
2022/02/07 11:38:36;;;;;;;;;;;;;;;17.39;45.24;100300.56;4930790;28;98087;-63
2022/02/07 11:41:04;;;;;;;;;;;;;;;17.35;45.53;100296.88;4954431;28;112737;-63
2022/02/07 11:43:34;;;;;;;;;;;;;;;17.38;45.30;100302.50;4922930;28;107844;-56
2022/02/07 11:46:03;;;;;;;;;;;;;;;17.36;45.37;100302.00;4923323;28;98798;-63
2022/02/07 11:48:37;;;;;;;;;;;;;;;17.35;45.30;100297.69;4934124;28;98981;-56
2022/02/07 11:51:15;;;;;;;;;;;;;;;17.38;45.14;100304.44;4944112;28;97767;-62
2022/02/07 11:53:48;;;;;;;;;;;;;;;17.31;45.38;100309.53;4942566;28;98795;-63
2022/02/07 11:56:58;;;;;;;;;;;;;;;17.25;45.37;100311.59;4942802;28;98679;-63
2022/02/07 11:59:39;;;;;;;;;;;;;;;17.42;45.00;100311.66;4941591;28;97948;-63
2022/02/07 12:02:15;;;;;;;;;;;;;;;17.69;44.85;100330.78;4926410;28;97917;-63
2022/02/07 12:04:48;;;;;;;;;;;;;;;17.80;44.77;100332.94;4922956;28;98111;-64
2022/02/07 12:07:27;;;;;;;;;;;;;;;17.78;44.72;100328.91;4923126;28;97906;-64
2022/02/07 12:12:48;;;;;;;;;;;;;;;17.52;45.12;100320.63;4923540;28;98067;-56
2022/02/07 12:15:22;;;;;;;;;;;;;;;17.37;45.38;100344.50;4922876;28;98886;-56
2022/02/07 12:17:54;;;;;;;;;;;;;;;17.32;45.47;100343.81;4922924;28;97794;-56
2022/02/07 12:20:31;;;;;;;;;;;;;;;17.29;45.44;100348.00;4922556;28;97973;-64
2022/02/07 12:23:08;;;;;;;;;;;;;;;17.44;45.12;100344.00;4922580;28;98292;-56
2022/02/07 12:25:52;;;;;;;;;;;;;;;17.53;44.84;100339.41;4922235;28;98257;-56
2022/02/07 12:31:10;;;;;;;;;;;;;;;17.84;44.38;100343.97;4921346;28;98237;-56
2022/02/07 12:33:37;;;;;;;;;;;;;;;18.07;44.09;100353.63;4922575;28;97834;-56
2022/02/07 12:36:04;;;;;;;;;;;;;;;18.15;44.18;100349.28;4921916;28;99274;-63
2022/02/07 12:38:33;;;;;;;;;;;;;;;18.11;44.25;100367.41;4932477;28;118576;-63
2022/02/07 12:40:59;;;;;;;;;;;;;;;17.93;44.73;100377.53;4941682;28;98783;-57
2022/02/07 12:43:25;;;;;;;;;;;;;;;17.87;44.56;100374.13;4941559;28;98011;-56
2022/02/07 12:45:51;;;;;;;;;;;;;;;17.81;44.69;100378.13;4942010;28;111865;-64
2022/02/07 12:48:26;;;;;;;;;;;;;;;17.76;44.90;100381.00;4941887;28;98837;-63
2022/02/07 12:50:53;;;;;;;;;;;;;;;17.90;44.53;100389.06;4941916;28;97829;-63
2022/02/07 12:53:20;;;;;;;;;;;;;;;18.05;44.33;100380.41;4942416;28;97965;-56
2022/02/07 12:55:47;;;;;;;;;;;;;;;17.94;44.59;100389.22;4941503;28;99131;-56
2022/02/07 12:58:13;;;;;;;;;;;;;;;17.92;44.75;100411.38;4930576;28;98380;-64
2022/02/07 13:00:39;;;;;;;;;;;;;;;17.79;44.67;100428.63;4923356;28;99614;-64
2022/02/07 13:03:05;;;;;;;;;;;;;;;17.65;44.83;100417.84;4939643;28;113138;-63
2022/02/07 13:05:31;;;;;;;;;;;;;;;17.53;45.00;100421.16;4940725;28;113342;-63
2022/02/07 13:08:00;;;;;;;;;;;;;;;17.51;44.86;100420.66;4941262;28;98558;-64
2022/02/07 13:10:33;;;;;;;;;;;;;;;17.53;44.73;100432.06;4923170;28;99343;-63
2022/02/07 13:15:29;;;;;;;;;;;;;;;17.41;44.91;100434.56;4938024;28;111956;-63
2022/02/07 13:17:58;;;;;;;;;;;;;;;17.42;44.91;100441.63;4935197;28;98424;-57
2022/02/07 13:20:24;;;;;;;;;;;;;;;17.50;44.70;100432.69;4921693;28;98013;-56
2022/02/07 13:23:06;;;;;;;;;;;;;;;17.67;44.43;100440.09;4922689;28;97739;-57
2022/02/07 13:25:43;;;;;;;;;;;;;;;17.71;44.27;100445.72;4921453;28;99170;-56
2022/02/07 13:28:13;;;;;;;;;;;;;;;17.69;44.25;100464.34;4922546;28;98923;-56
2022/02/07 13:30:41;;;;;;;;;;;;;;;17.59;44.39;100458.03;4921304;28;97849;-56
2022/02/07 13:33:07;;;;;;;;;;;;;;;17.56;44.49;100461.38;4921980;28;98135;-55
2022/02/07 13:35:42;;;;;;;;;;;;;;;17.53;44.55;100470.22;4920571;28;98999;-56
2022/02/07 13:38:08;;;;;;;;;;;;;;;17.48;44.54;100466.78;4922992;28;98438;-56
2022/02/07 13:40:39;;;;;;;;;;;;;;;17.34;44.63;100472.34;4921272;28;98566;-56
2022/02/07 13:43:07;;;;;;;;;;;;;;;17.21;44.77;100473.22;4928749;28;97971;-63
2022/02/07 13:45:33;;;;;;;;;;;;;;;17.12;44.89;100486.78;4940218;28;98292;-58
2022/02/07 13:48:00;;;;;;;;;;;;;;;17.01;44.82;100479.97;4934581;28;127494;-57
2022/02/07 13:50:30;;;;;;;;;;;;;;;16.88;44.87;100496.06;4903833;28;98159;-57
2022/02/07 13:52:58;;;;;;;;;;;;;;;16.79;44.89;100483.50;4904848;28;98033;-63
2022/02/07 13:55:28;;;;;;;;;;;;;;;16.72;44.69;100499.44;4921080;28;99183;-64
2022/02/07 13:58:03;;;;;;;;;;;;;;;16.66;44.68;100502.28;4921500;28;99014;-63
2022/02/07 14:00:33;;;;;;;;;;;;;;;16.60;44.66;100503.50;4928512;28;99267;-64
2022/02/07 14:03:19;;;;;;;;;;;;;;;16.55;44.62;100508.25;4955780;28;98137;-56
2022/02/07 14:05:51;;;;;;;;;;;;;;;16.48;44.51;100508.66;4940361;28;99006;-56
2022/02/07 14:08:28;;;;;;;;;;;;;;;16.41;44.50;100513.72;4935557;28;98283;-57
2022/02/07 14:10:54;;;;;;;;;;;;;;;16.35;44.49;100513.03;4919584;28;112252;-63
2022/02/07 14:13:20;;;;;;;;;;;;;;;16.30;44.54;100521.28;4918489;28;118089;-63
2022/02/07 14:15:46;;;;;;;;;;;;;;;16.31;44.31;100531.06;4920738;28;98549;-56
2022/02/07 14:18:15;;;;;;;;;;;;;;;16.34;44.20;100540.50;4918504;28;105143;-56
2022/02/07 14:20:41;;;;;;;;;;;;;;;16.38;44.27;100546.94;4919180;28;98399;-56
2022/02/07 14:23:09;;;;;;;;;;;;;;;16.40;44.19;100567.31;4920095;28;98131;-63
2022/02/07 14:25:35;;;;;;;;;;;;;;;16.41;44.13;100570.84;4921815;28;98308;-63
2022/02/07 14:28:01;;;;;;;;;;;;;;;16.39;43.93;100576.59;4922988;28;98196;-63
2022/02/07 14:30:30;;;;;;;;;;;;;;;16.39;43.74;100573.88;4923002;28;97914;-57
2022/02/07 14:32:56;;;;;;;;;;;;;;;16.32;43.71;100572.66;4922469;28;97870;-63
2022/02/07 14:35:22;;;;;;;;;;;;;;;16.29;43.82;100584.94;4903463;28;117993;-64
2022/02/07 14:37:48;;;;;;;;;;;;;;;16.31;43.54;100579.19;4900928;28;120369;-63
2022/02/07 14:40:15;;;;;;;;;;;;;;;16.27;43.61;100592.63;4901640;28;127337;-56
2022/02/07 14:42:41;;;;;;;;;;;;;;;16.23;43.53;100593.50;4908213;28;98122;-56
2022/02/07 14:45:18;;;;;;;;;;;;;;;16.18;43.48;100611.53;4921559;28;98536;-64
2022/02/07 14:50:15;;;;;;;;;;;;;;;16.19;43.35;100617.75;4901588;28;98021;-56
2022/02/07 14:52:41;;;;;;;;;;;;;;;16.16;43.67;100618.38;4908121;28;98120;-63
2022/02/07 14:55:07;;;;;;;;;;;;;;;16.13;43.53;100622.50;4921335;28;117164;-63
2022/02/07 14:57:33;;;;;;;;;;;;;;;16.10;43.50;100625.81;4917628;28;98389;-63
2022/02/07 14:59:59;;;;;;;;;;;;;;;16.06;43.54;100630.25;4902224;28;126453;-56
2022/02/07 15:02:25;;;;;;;;;;;;;;;16.03;43.46;100639.00;4903579;28;111623;-57
2022/02/07 15:04:54;;;;;;;;;;;;;;;15.99;43.65;100648.06;4901440;28;128983;-56
2022/02/07 15:07:20;;;;;;;;;;;;;;;15.99;43.72;100651.56;4902849;28;98433;-63
2022/02/07 15:09:48;;;;;;;;;;;;;;;16.00;43.34;100652.41;4900670;28;97930;-55
2022/02/07 15:12:15;;;;;;;;;;;;;;;16.00;43.54;100666.81;4904537;28;97984;-57
2022/02/07 15:14:42;;;;;;;;;;;;;;;15.99;43.57;100657.00;4901715;28;113394;-63
2022/02/07 15:17:08;;;;;;;;;;;;;;;15.99;43.70;100665.16;4914120;28;98994;-64
2022/02/07 15:19:34;;;;;;;;;;;;;;;15.96;43.44;100665.78;4902950;28;101977;-58